createdAt,value
2023-03-21T00:00:00.106Z,-28
2023-03-21T00:02:02.045Z,-28.1
2023-03-21T00:02:45.823Z,-27.6
2023-03-21T00:06:48.718Z,-28
2023-03-21T00:08:50.016Z,-28.1
2023-03-21T00:10:51.409Z,-28
2023-03-21T00:12:52.990Z,-27.4
2023-03-21T00:18:56.982Z,-27.3
2023-03-21T00:21:22.313Z,-27.3
2023-03-21T00:22:59.961Z,-27.4
2023-03-21T00:25:01.645Z,-27.5
2023-03-21T00:27:26.738Z,-27.4
2023-03-21T00:29:04.074Z,-27.4
2023-03-21T00:31:05.488Z,-27.3
2023-03-21T00:33:21.661Z,-27.4
2023-03-21T00:35:26.086Z,-27.4
2023-03-21T00:37:08.413Z,-27.3
2023-03-21T00:39:09.366Z,-27.3
2023-03-21T00:41:19.193Z,-27.4
2023-03-21T00:43:12.388Z,-27.3
2023-03-21T00:45:13.617Z,-27.4
2023-03-21T00:47:15.007Z,-27.3
2023-03-21T00:49:15.909Z,-27.3
2023-03-21T00:51:17.844Z,-27.4
2023-03-21T00:55:20.580Z,-27.6
2023-03-21T00:57:32.571Z,-27.5
2023-03-21T00:59:23.633Z,-27.7
2023-03-21T01:01:25.213Z,-27.6
2023-03-21T01:05:27.813Z,-27.7
2023-03-21T01:07:28.837Z,-27.4
2023-03-21T01:09:30.661Z,-27.4
2023-03-21T01:11:32.321Z,-27.8
2023-03-21T01:17:36.608Z,-27.3
2023-03-21T01:19:50.513Z,-27.4
2023-03-21T01:21:39.603Z,-27.4
2023-03-21T01:23:41.484Z,-27.5
2023-03-21T01:25:43.085Z,-27.1
2023-03-21T01:27:44.854Z,-27.2
2023-03-21T01:31:48.181Z,-27.2
2023-03-21T01:33:49.554Z,-27.3
2023-03-21T01:35:57.537Z,-27.5
2023-03-21T01:37:52.744Z,-27.4
2023-03-21T01:41:56.225Z,-27.3
2023-03-21T01:43:57.673Z,-27.5
2023-03-21T01:45:58.995Z,-27.6
2023-03-21T01:48:00.374Z,-27.3
2023-03-21T01:50:01.860Z,-27.2
2023-03-21T01:52:10.145Z,-27.3
2023-03-21T01:54:04.746Z,-27.2
2023-03-21T01:56:05.776Z,-27.3
2023-03-21T01:58:07.683Z,-27.6
2023-03-21T02:00:09.327Z,-27.4
2023-03-21T02:02:10.704Z,-27.4
2023-03-21T02:04:20.190Z,-27.2
2023-03-21T02:06:13.283Z,-27.5
2023-03-21T02:08:14.275Z,-27.6
2023-03-21T02:10:15.282Z,-28.1
2023-03-21T02:12:16.421Z,-28
2023-03-21T02:14:23.380Z,-27.8
2023-03-21T02:16:19.234Z,-28.1
2023-03-21T02:18:20.254Z,-27.9
2023-03-21T02:20:21.858Z,-27.8
2023-03-21T02:22:23.024Z,-28
2023-03-21T02:24:24.377Z,-27.9
2023-03-21T02:26:28.445Z,-28
2023-03-21T02:30:30.653Z,-27.9
2023-03-21T02:32:37.283Z,-28.3
2023-03-21T02:34:30.410Z,-27.9
2023-03-21T02:36:31.913Z,-27.9
2023-03-21T02:42:37.236Z,-28
2023-03-21T02:44:39.098Z,-28
2023-03-21T02:46:45.556Z,-27.9
2023-03-21T02:48:50.491Z,-28
2023-03-21T02:50:43.137Z,-27.8
2023-03-21T02:52:44.290Z,-28.3
2023-03-21T02:54:48.223Z,-27.8
2023-03-21T02:56:47.176Z,-27.9
2023-03-21T02:58:48.430Z,-28.3
2023-03-21T03:00:50.219Z,-28.2
2023-03-21T03:02:59.704Z,-28.3
2023-03-21T03:04:52.602Z,-28.4
2023-03-21T03:06:54.126Z,-28
2023-03-21T03:09:02.077Z,-28.3
2023-03-21T03:12:58.333Z,-27.8
2023-03-21T03:15:03.325Z,-28.3
2023-03-21T03:17:00.927Z,-28.5
2023-03-21T03:19:02.635Z,-28.5
2023-03-21T03:21:03.659Z,-28.3
2023-03-21T03:23:04.752Z,-28.2
2023-03-21T03:25:18.432Z,-28.3
2023-03-21T03:27:08.369Z,-28.3
2023-03-21T03:29:09.720Z,-28.5
2023-03-21T03:31:11.794Z,-28
2023-03-21T03:33:12.478Z,-28.4
2023-03-21T03:35:13.985Z,-28.3
2023-03-21T03:41:19.468Z,-28.3
2023-03-21T03:43:19.728Z,-28.4
2023-03-21T03:45:21.643Z,-28.3
2023-03-21T03:47:32.672Z,-28.2
2023-03-21T03:49:25.425Z,-28
2023-03-21T03:51:26.393Z,-28.5
2023-03-21T03:53:28.067Z,-28.3
2023-03-21T03:55:29.722Z,-27.9
2023-03-21T03:57:30.974Z,-28.4
2023-03-21T04:01:32.931Z,-28.5
2023-03-21T04:05:35.841Z,-28.2
2023-03-21T04:07:37.774Z,-27.9
2023-03-21T04:11:40.792Z,-28.1
2023-03-21T04:13:42.191Z,-27.8
2023-03-21T04:15:43.940Z,-27.9
2023-03-21T04:17:45.493Z,-28.2
2023-03-21T04:21:47.687Z,-28.2
2023-03-21T04:23:49.624Z,-28.2
2023-03-21T04:25:56.534Z,-28
2023-03-21T04:27:52.521Z,-28.2
2023-03-21T04:31:55.084Z,-27.9
2023-03-21T04:33:56.917Z,-28
2023-03-21T04:37:59.893Z,-28.2
2023-03-21T04:40:01.506Z,-28.3
2023-03-21T04:42:02.545Z,-28
2023-03-21T04:44:03.732Z,-28.2
2023-03-21T04:50:08.178Z,-28
2023-03-21T04:52:10.069Z,-28.1
2023-03-21T04:54:11.154Z,-27.8
2023-03-21T04:56:12.515Z,-27.7
2023-03-21T04:58:13.795Z,-27.9
2023-03-21T05:00:15.563Z,-27.7
2023-03-21T05:02:16.715Z,-28
2023-03-21T05:04:18.133Z,-27.8
2023-03-21T05:06:27.792Z,-27.9
2023-03-21T05:08:20.941Z,-27.8
2023-03-21T05:10:22.800Z,-27.7
2023-03-21T05:12:24.711Z,-28
2023-03-21T05:14:26.296Z,-27.8
2023-03-21T05:16:28.137Z,-28
2023-03-21T05:18:29.811Z,-28
2023-03-21T05:20:31.156Z,-27.9
2023-03-21T05:22:33.025Z,-27.8
2023-03-21T05:24:34.102Z,-27.7
2023-03-21T05:26:35.098Z,-27.6
2023-03-21T05:28:36.878Z,-27.7
2023-03-21T05:30:38.346Z,-27.7
2023-03-21T05:32:40.277Z,-28
2023-03-21T05:36:42.892Z,-27.8
2023-03-21T05:38:44.827Z,-27.9
2023-03-21T05:42:48.188Z,-27.6
2023-03-21T05:48:51.771Z,-27.9
2023-03-21T05:50:52.803Z,-27.9
2023-03-21T05:52:54.205Z,-27.6
2023-03-21T05:54:55.391Z,-27.6
2023-03-21T05:56:56.791Z,-28
2023-03-21T05:58:58.320Z,-27.9
2023-03-21T06:00:59.325Z,-27.6
2023-03-21T06:03:01.225Z,-27.5
2023-03-21T06:05:10.442Z,-27.7
2023-03-21T06:07:03.516Z,-27.8
2023-03-21T06:09:04.985Z,-27.9
2023-03-21T06:11:06.355Z,-27.7
2023-03-21T06:13:08.025Z,-27.9
2023-03-21T06:15:09.894Z,-27.8
2023-03-21T06:17:11.467Z,-27.7
2023-03-21T06:19:13.158Z,-27.7
2023-03-21T06:21:14.356Z,-27.8
2023-03-21T06:23:15.801Z,-27.7
2023-03-21T06:25:17.518Z,-27.7
2023-03-21T06:27:18.917Z,-27.6
2023-03-21T06:31:21.380Z,-27.7
2023-03-21T06:33:22.782Z,-27.6
2023-03-21T06:35:24.510Z,-27.5
2023-03-21T06:37:25.536Z,-27
2023-03-21T06:39:27.497Z,-26
2023-03-21T06:41:29.194Z,-24.6
2023-03-21T06:47:33.554Z,-16.5
2023-03-21T06:52:19.996Z,-8.2
2023-03-21T06:56:23.056Z,-6.3
2023-03-21T06:58:24.620Z,-5
2023-03-21T07:00:25.565Z,-2.6
2023-03-21T07:02:27.367Z,2.5
2023-03-21T07:06:30.227Z,9.6
2023-03-21T07:08:31.619Z,8.7
2023-03-21T07:12:34.909Z,21.5
2023-03-21T07:14:36.760Z,26.2
2023-03-21T07:16:38.216Z,31.7
2023-03-21T07:18:39.657Z,37.09
2023-03-21T07:22:41.729Z,57.9
2023-03-21T07:24:42.955Z,65.8
2023-03-21T07:26:44.158Z,77.3
2023-03-21T07:28:44.992Z,76.6
2023-03-21T07:30:46.421Z,75.9
2023-03-21T07:32:48.251Z,74.69
2023-03-21T07:34:49.789Z,74.5
2023-03-21T07:36:50.925Z,74.1
2023-03-21T07:38:52.581Z,73.19
2023-03-21T07:40:54.231Z,72.9
2023-03-21T07:42:55.598Z,72.4
2023-03-21T07:44:57.199Z,71.4
2023-03-21T07:46:58.807Z,71.4
2023-03-21T07:51:01.071Z,69.6
2023-03-21T07:55:03.100Z,68.3
2023-03-21T07:57:04.122Z,67.5
2023-03-21T07:59:05.280Z,66.69
2023-03-21T08:01:06.602Z,66
2023-03-21T08:07:09.856Z,62.8
2023-03-21T08:09:11.126Z,61.6
2023-03-21T08:11:12.318Z,60.4
2023-03-21T08:13:13.801Z,59.4
2023-03-21T08:15:15.166Z,57.6
2023-03-21T08:17:16.875Z,56.3
2023-03-21T08:21:19.460Z,54.1
2023-03-21T08:23:20.721Z,53.2
2023-03-21T08:25:21.904Z,50.7
2023-03-21T08:27:23.174Z,49.3
2023-03-21T08:29:24.956Z,47.4
2023-03-21T08:31:26.381Z,45.8
2023-03-21T08:33:28.053Z,45
2023-03-21T08:35:29.152Z,43.2
2023-03-21T08:37:30.803Z,41.8
2023-03-21T08:39:31.659Z,39.5
2023-03-21T08:43:33.372Z,37.09
2023-03-21T08:45:34.374Z,35.09
2023-03-21T08:47:35.503Z,32.8
2023-03-21T08:49:36.862Z,32
2023-03-21T08:53:39.865Z,28.8
2023-03-21T08:55:41.300Z,27.3
2023-03-21T08:57:42.975Z,25.5
2023-03-21T08:59:44.655Z,24.9
2023-03-21T09:03:48.124Z,20.1
2023-03-21T09:05:49.652Z,18.2
2023-03-21T09:07:50.753Z,18.6
2023-03-21T09:10:02.976Z,18.29
2023-03-21T09:13:54.829Z,15.1
2023-03-21T09:15:55.804Z,14.9
2023-03-21T09:17:56.887Z,14.2
2023-03-21T09:19:58.545Z,12.8
2023-03-21T09:21:59.934Z,12.2
2023-03-21T09:24:00.867Z,12.7
2023-03-21T09:26:01.780Z,11.8
2023-03-21T09:28:03.085Z,10.9
2023-03-21T09:32:05.231Z,10.6
2023-03-21T09:36:08.188Z,-28
2023-03-21T09:38:09.177Z,-28
2023-03-21T09:40:10.214Z,-27.8
2023-03-21T09:42:13.702Z,-27.8
2023-03-21T09:48:17.256Z,-27.9
2023-03-21T09:50:18.515Z,-27.7
2023-03-21T09:52:19.462Z,-27.5
2023-03-21T09:54:20.671Z,-27.5
2023-03-21T09:56:22.160Z,-28
2023-03-21T09:58:23.874Z,-27.7
2023-03-21T10:00:25.211Z,-27.9
2023-03-21T10:02:26.015Z,-27.9
2023-03-21T10:04:27.143Z,-27.8
2023-03-21T10:06:28.406Z,-27.7
2023-03-21T10:08:29.688Z,-27.8
2023-03-21T10:10:31.112Z,-27.6
2023-03-21T10:12:32.016Z,-27.7
2023-03-21T10:14:33.393Z,-27.7
2023-03-21T10:16:35.218Z,-27.8
2023-03-21T10:18:36.888Z,-27.9
2023-03-21T10:20:38.584Z,-28.2
2023-03-21T10:22:39.586Z,-27.9
2023-03-21T10:24:41.077Z,-27.9
2023-03-21T10:26:42.374Z,-27.9
2023-03-21T10:28:52.678Z,-27.5
2023-03-21T10:30:45.123Z,-27.9
2023-03-21T10:32:46.418Z,-27.9
2023-03-21T10:34:47.196Z,-27.9
2023-03-21T10:36:48.600Z,-27.8
2023-03-21T10:38:49.438Z,-27.9
2023-03-21T10:40:50.358Z,-28
2023-03-21T10:46:54.833Z,-27.6
2023-03-21T10:48:55.797Z,-27.7
2023-03-21T10:50:56.778Z,-27.8
2023-03-21T10:52:57.856Z,-27.8
2023-03-21T10:54:59.287Z,-27.9
2023-03-21T10:57:00.977Z,-27.8
2023-03-21T11:01:04.094Z,-27.4
2023-03-21T11:03:04.865Z,-28
2023-03-21T11:05:06.671Z,-27.7
2023-03-21T11:07:08.175Z,-28
2023-03-21T11:13:11.991Z,-27.9
2023-03-21T11:19:15.139Z,-28
2023-03-21T11:21:24.952Z,-27.9
2023-03-21T11:23:20.584Z,-29.6
2023-03-21T11:25:20.089Z,-27.7
2023-03-21T11:27:21.171Z,-27.6
2023-03-21T11:29:22.593Z,-27.9
2023-03-21T11:31:23.942Z,-27.9
2023-03-21T11:33:25.711Z,-27.8
2023-03-21T11:35:26.870Z,-27.8
2023-03-21T11:37:27.680Z,-27.8
2023-03-21T11:39:28.930Z,-27.9
2023-03-21T11:43:31.841Z,-27.7
2023-03-21T11:45:33.454Z,-27.7
2023-03-21T11:47:34.351Z,-27.7
2023-03-21T11:49:35.997Z,-27.6
2023-03-21T11:51:37.397Z,-27.8
2023-03-21T11:53:38.954Z,-27.6
2023-03-21T11:55:40.655Z,-27.9
2023-03-21T11:59:44.603Z,-27.7
2023-03-21T12:01:46.294Z,-28
2023-03-21T12:03:49.135Z,-28
2023-03-21T12:05:50.541Z,-28
2023-03-21T12:07:52.045Z,-27.8
2023-03-21T12:09:53.620Z,-27.6
2023-03-21T12:11:55.058Z,-27.9
2023-03-21T12:15:57.933Z,-27.9
2023-03-21T12:17:59.490Z,-27.9
2023-03-21T12:20:00.911Z,-28
2023-03-21T12:22:02.505Z,-27.9
2023-03-21T12:28:06.575Z,-28.2
2023-03-21T12:30:07.674Z,-28.2
2023-03-21T12:32:08.834Z,-28
2023-03-21T12:34:09.816Z,-27.9
2023-03-21T12:36:11.398Z,-27.9
2023-03-21T12:38:12.710Z,-27.7
2023-03-21T12:40:14.284Z,-27.9
2023-03-21T12:42:16.231Z,-27.6
2023-03-21T12:44:17.687Z,-28
2023-03-21T12:46:19.581Z,-27.7
2023-03-21T12:48:20.704Z,-27.9
2023-03-21T12:50:22.432Z,-27.8
2023-03-21T12:52:23.653Z,-27.8
2023-03-21T12:54:24.540Z,-27.8
2023-03-21T12:56:26.288Z,-27.8
2023-03-21T12:58:28.005Z,-28
2023-03-21T13:00:30.045Z,-27.9
2023-03-21T13:02:31.124Z,-27.8
2023-03-21T13:04:32.357Z,-27.7
2023-03-21T13:06:34.040Z,-28.2
2023-03-21T13:10:37.118Z,-27.7
2023-03-21T13:14:39.456Z,-28
2023-03-21T13:16:41.098Z,-27.8
2023-03-21T13:18:42.282Z,-27.6
2023-03-21T13:20:43.892Z,-27.9
2023-03-21T13:24:47.812Z,-28
2023-03-21T13:26:48.861Z,-27.9
2023-03-21T13:30:51.095Z,-27.8
2023-03-21T13:32:52.735Z,-27.6
2023-03-21T13:33:36.497Z,-27.5
2023-03-21T13:35:37.616Z,-27.7
2023-03-21T13:37:39.111Z,-27.6
2023-03-21T13:39:40.635Z,-27.9
2023-03-21T13:41:42.185Z,-27.8
2023-03-21T13:43:43.194Z,-27.7
2023-03-21T13:45:44.818Z,-27.9
2023-03-21T13:47:46.054Z,-27.8
2023-03-21T13:49:47.563Z,-28
2023-03-21T13:51:49.320Z,-27.8
2023-03-21T13:53:51.220Z,-28.1
2023-03-21T13:55:52.769Z,-27.6
2023-03-21T13:57:54.566Z,-27.9
2023-03-21T14:03:58.474Z,-27.9
2023-03-21T14:05:59.514Z,-27.9
2023-03-21T14:08:10.731Z,-28.2
2023-03-21T14:10:04.972Z,-27.7
2023-03-21T14:12:07.663Z,-27.8
2023-03-21T14:14:05.328Z,-28
2023-03-21T14:18:11.030Z,-28
2023-03-21T14:20:11.678Z,-27.9
2023-03-21T14:22:11.004Z,-28.3
2023-03-21T14:24:12.651Z,-27.7
2023-03-21T14:26:13.986Z,-27.8
2023-03-21T14:28:15.077Z,-27.8
2023-03-21T14:30:16.251Z,-27.9
2023-03-21T14:32:17.778Z,-27.6
2023-03-21T14:34:19.471Z,-28
2023-03-21T14:36:20.849Z,-28
2023-03-21T14:40:22.741Z,-27.7
2023-03-21T14:42:23.681Z,-27.7
2023-03-21T14:44:24.571Z,-27.8
2023-03-21T14:46:26.261Z,-28
2023-03-21T14:50:29.474Z,-27.9
2023-03-21T14:52:30.448Z,-27.8
2023-03-21T14:54:32.070Z,-27.8
2023-03-21T14:56:33.789Z,-28
2023-03-21T15:00:36.768Z,-27.9
2023-03-21T15:02:38.469Z,-27.8
2023-03-21T15:04:39.496Z,-28.2
2023-03-21T15:06:40.702Z,-27.7
2023-03-21T15:10:43.248Z,-27.6
2023-03-21T15:12:44.394Z,-28.1
2023-03-21T15:14:46.192Z,-28.4
2023-03-21T15:16:47.368Z,-27.7
2023-03-21T15:18:48.541Z,-28.1
2023-03-21T15:20:50.391Z,-27.7
2023-03-21T15:22:51.788Z,-28
2023-03-21T15:24:53.245Z,-27.9
2023-03-21T15:28:55.670Z,-27.8
2023-03-21T15:32:57.846Z,-27.8
2023-03-21T15:34:59.156Z,-27.9
2023-03-21T15:37:00.890Z,-27.8
2023-03-21T15:39:02.569Z,-27.6
2023-03-21T15:45:06.101Z,-28
2023-03-21T15:47:07.233Z,-27.9
2023-03-21T15:49:08.630Z,-28
2023-03-21T15:51:10.057Z,-26.7
2023-03-21T15:53:11.592Z,-27
2023-03-21T15:55:13.336Z,-27.8
2023-03-21T15:59:15.861Z,-28.2
2023-03-21T16:01:17.382Z,-27.8
2023-03-21T16:03:18.652Z,-28.2
2023-03-21T16:05:20.017Z,-27.9
2023-03-21T16:07:21.361Z,-27.8
2023-03-21T16:09:23.126Z,-27.8
2023-03-21T16:11:24.707Z,-27.9
2023-03-21T16:13:26.171Z,-27.9
2023-03-21T16:15:28.031Z,-27.9
2023-03-21T16:17:29.350Z,-27.6
2023-03-21T16:19:31.104Z,-28
2023-03-21T16:21:32.711Z,-27.8
2023-03-21T16:23:34.520Z,-27.8
2023-03-21T16:25:35.740Z,-27.9
2023-03-21T16:27:37.118Z,-28
2023-03-21T16:29:38.460Z,-27.7
2023-03-21T16:31:39.542Z,-28.2
2023-03-21T16:33:41.273Z,-27.9
2023-03-21T16:35:42.416Z,-27.9
2023-03-21T16:37:43.361Z,-27.7
2023-03-21T16:43:47.217Z,-27.9
2023-03-21T16:45:48.465Z,-27.9
2023-03-21T16:47:49.326Z,-27.5
2023-03-21T16:49:51.058Z,-28.2
2023-03-21T16:51:52.290Z,-28.3
2023-03-21T16:53:53.839Z,-28.1
2023-03-21T16:57:56.859Z,-28
2023-03-21T16:59:58.244Z,-27.6
2023-03-21T17:01:59.979Z,-28.2
2023-03-21T17:04:00.936Z,-28.3
2023-03-21T17:10:04.949Z,-27.9
2023-03-21T17:12:06.041Z,-27.9
2023-03-21T17:14:07.883Z,-27.7
2023-03-21T17:16:09.103Z,-27.8
2023-03-21T17:18:10.178Z,-28
2023-03-21T17:20:12.013Z,-27.8
2023-03-21T17:22:14.532Z,-28
2023-03-21T17:24:14.323Z,-27.9
2023-03-21T17:26:15.853Z,-27.8
2023-03-21T17:28:17.092Z,-27.9
2023-03-21T17:30:18.616Z,-28
2023-03-21T17:32:20.057Z,-28.3
2023-03-21T17:34:21.956Z,-27.9
2023-03-21T17:36:23.126Z,-28
2023-03-21T17:38:24.545Z,-28
2023-03-21T17:40:26.052Z,-28
2023-03-21T17:42:27.282Z,-27.9
2023-03-21T17:44:29.091Z,-28
2023-03-21T17:46:30.244Z,-28
2023-03-21T17:48:31.928Z,-28.1
2023-03-21T17:52:34.646Z,-28.6
2023-03-21T17:56:37.486Z,-28.4
2023-03-21T17:58:39.283Z,-28.3
2023-03-21T18:00:40.814Z,-28.5
2023-03-21T18:02:42.285Z,-28.2
2023-03-21T18:08:46.721Z,-28.3
2023-03-21T18:10:48.211Z,-28.5
2023-03-21T18:12:49.109Z,-28
2023-03-21T18:14:50.537Z,-28
2023-03-21T18:16:52.002Z,-28.1
2023-03-21T18:18:53.134Z,-28
2023-03-21T18:20:57.766Z,-28
2023-03-21T18:22:56.711Z,-27.9
2023-03-21T18:24:58.494Z,-27.9
2023-03-21T18:26:59.785Z,-27.9
2023-03-21T18:31:10.825Z,-27.8
2023-03-21T18:33:04.328Z,-27.9
2023-03-21T18:35:06.205Z,-28.1
2023-03-21T18:37:07.903Z,-28
2023-03-21T18:39:08.264Z,-28
2023-03-21T18:41:10.147Z,-28
2023-03-21T18:43:58.646Z,-27.9
2023-03-21T18:45:13.075Z,-27.9
2023-03-21T18:47:14.078Z,-27.9
2023-03-21T18:49:57.286Z,-27.8
2023-03-21T18:51:16.931Z,-27.7
2023-03-21T18:53:18.650Z,-27.8
2023-03-21T18:55:20.907Z,-27.9
2023-03-21T18:57:36.148Z,-27.7
2023-03-21T18:59:22.675Z,-28.6
2023-03-21T19:01:23.835Z,-27.7
2023-03-21T19:07:28.991Z,-28
2023-03-21T19:09:32.040Z,-27.9
2023-03-21T19:11:31.864Z,-27.7
2023-03-21T19:13:33.505Z,-27.8
2023-03-21T19:15:35.061Z,-27.8
2023-03-21T19:18:26.389Z,-27.8
2023-03-21T19:19:37.788Z,-27.5
2023-03-21T19:21:39.091Z,-27.7
2023-03-21T19:27:43.805Z,-27.7
2023-03-21T19:29:57.069Z,-27.9
2023-03-21T19:31:46.920Z,-27.7
2023-03-21T19:33:48.170Z,-27.8
2023-03-21T19:37:51.453Z,-27.7
2023-03-21T19:39:52.471Z,-27.6
2023-03-21T19:41:57.707Z,-27.6
2023-03-21T19:43:56.577Z,-27.7
2023-03-21T19:50:42.697Z,-27.6
2023-03-21T19:52:01.522Z,-27.9
2023-03-21T19:54:02.861Z,-27.4
2023-03-21T19:56:15.122Z,-27.7
2023-03-21T19:58:05.684Z,-27.9
2023-03-21T20:00:07.469Z,-27.6
2023-03-21T20:04:10.920Z,-27.7
2023-03-21T20:06:11.906Z,-27.6
2023-03-21T20:08:13.580Z,-27.4
2023-03-21T20:10:15.346Z,-27.8
2023-03-21T20:16:20.316Z,-27.7
2023-03-21T20:18:21.427Z,-27.8
2023-03-21T20:19:05.256Z,-27.8
2023-03-21T20:21:16.260Z,-27.3
2023-03-21T20:25:09.229Z,-27.4
2023-03-21T20:27:10.448Z,-27.8
2023-03-21T20:30:00.114Z,-27.7
2023-03-21T20:31:13.947Z,-28
2023-03-21T20:33:15.559Z,-28
2023-03-21T20:35:24.606Z,-27.9
2023-03-21T20:37:18.909Z,-27.8
2023-03-21T20:39:20.472Z,-28
2023-03-21T20:41:22.320Z,-27.8
2023-03-21T20:44:07.241Z,-27.7
2023-03-21T20:45:25.384Z,-28.6
2023-03-21T20:47:26.660Z,-27.9
2023-03-21T20:49:28.613Z,-28.5
2023-03-21T20:53:31.177Z,-28.6
2023-03-21T20:57:34.867Z,-28.3
2023-03-21T20:59:35.306Z,-28.5
2023-03-21T21:01:37.222Z,-28.4
2023-03-21T21:03:39.031Z,-28.3
2023-03-21T21:07:42.384Z,-28.5
2023-03-21T21:09:43.382Z,-28.6
2023-03-21T21:12:07.513Z,-28.5
2023-03-21T21:13:45.320Z,-28.3
2023-03-21T21:15:46.760Z,-28.5
2023-03-21T21:18:05.138Z,-28.6
2023-03-21T21:19:50.456Z,-28.5
2023-03-21T21:23:53.390Z,-28.5
2023-03-21T21:25:54.468Z,-28.7
2023-03-21T21:27:56.371Z,-28.6
2023-03-21T21:29:58.141Z,-28.5
2023-03-21T21:32:08.695Z,-28.8
2023-03-21T21:34:00.940Z,-28.2
2023-03-21T21:36:02.627Z,-28.3
2023-03-21T21:40:05.951Z,-28.4
2023-03-21T21:42:07.536Z,-28.5
2023-03-21T21:44:09.446Z,-28.6
2023-03-21T21:46:10.988Z,-28.6
2023-03-21T21:52:15.212Z,-28.5
2023-03-21T21:54:17.077Z,-28.5
2023-03-21T21:56:18.427Z,-28.7
2023-03-21T21:58:19.507Z,-28.4
2023-03-21T22:00:20.672Z,-28.3
2023-03-21T22:02:22.378Z,-28.3
2023-03-21T22:04:23.653Z,-28.2
2023-03-21T22:06:24.940Z,-28.7
2023-03-21T22:08:26.059Z,-28.4
2023-03-21T22:10:27.257Z,-28.2
2023-03-21T22:12:29.067Z,-28.5
2023-03-21T22:14:30.152Z,-28.6
2023-03-21T22:16:31.425Z,-27.7
2023-03-21T22:18:32.992Z,-27.8
2023-03-21T22:20:34.833Z,-28
2023-03-21T22:22:36.319Z,-27.9
2023-03-21T22:24:37.917Z,-27.7
2023-03-21T22:26:39.400Z,-27.6
2023-03-21T22:28:42.136Z,-27.6
2023-03-21T22:30:41.946Z,-27.9
2023-03-21T22:32:43.235Z,-27.7
2023-03-21T22:34:44.487Z,-27.7
2023-03-21T22:36:45.725Z,-27.5
2023-03-21T22:38:47.441Z,-27.6
2023-03-21T22:40:48.816Z,-27.8
2023-03-21T22:42:50.478Z,-27.6
2023-03-21T22:44:52.005Z,-27.7
2023-03-21T22:50:56.903Z,-27.7
2023-03-21T22:52:58.459Z,-27.7
2023-03-21T22:55:00.283Z,-27.9
2023-03-21T22:57:02.195Z,-27.8
2023-03-21T22:59:03.861Z,-27.8
2023-03-21T23:01:05.699Z,-27.7
2023-03-21T23:03:06.644Z,-27.7
2023-03-21T23:05:07.654Z,-27.7
2023-03-21T23:07:08.715Z,-27.8
2023-03-21T23:11:11.642Z,-27.7
2023-03-21T23:13:12.597Z,-28
2023-03-21T23:15:13.818Z,-27.5
2023-03-21T23:17:15.265Z,-27.6
2023-03-21T23:21:18.217Z,-27.9
2023-03-21T23:23:19.789Z,-27.7
2023-03-21T23:25:20.839Z,-27.8
2023-03-21T23:27:21.865Z,-27.7
2023-03-21T23:31:24.143Z,-27.6
2023-03-21T23:33:25.135Z,-27.8
2023-03-21T23:35:26.836Z,-27.9
2023-03-21T23:37:28.163Z,-27.7
2023-03-21T23:39:29.938Z,-27.8
2023-03-21T23:41:31.214Z,-27.8
2023-03-21T23:43:32.758Z,-27.9
2023-03-21T23:47:35.561Z,-27.8
2023-03-21T23:49:36.732Z,-27.7
2023-03-21T23:51:38.038Z,-27.5
2023-03-21T23:53:39.320Z,-28.1
2023-03-21T23:55:40.574Z,-27.8
2023-03-21T23:59:43.750Z,-27.9
